sensor_id;sensor_type;location;lat;lon;timestamp;temperature;humidity
17639;DHT22;8938;53.546;9.954;2023-01-31T00:01:09;8.30;99.90
17639;DHT22;8938;53.546;9.954;2023-01-31T00:03:36;8.30;99.90
17639;DHT22;8938;53.546;9.954;2023-01-31T00:06:20;8.30;99.90
17639;DHT22;8938;53.546;9.954;2023-01-31T00:08:47;8.30;99.90
17639;DHT22;8938;53.546;9.954;2023-01-31T00:11:14;8.30;99.90
17639;DHT22;8938;53.546;9.954;2023-01-31T00:13:40;8.20;99.90
17639;DHT22;8938;53.546;9.954;2023-01-31T00:16:06;8.20;99.90
17639;DHT22;8938;53.546;9.954;2023-01-31T00:18:33;8.20;99.90
17639;DHT22;8938;53.546;9.954;2023-01-31T00:21:10;8.20;99.90
17639;DHT22;8938;53.546;9.954;2023-01-31T00:23:37;8.10;99.90
17639;DHT22;8938;53.546;9.954;2023-01-31T00:28:32;8.00;99.90
17639;DHT22;8938;53.546;9.954;2023-01-31T00:30:58;8.10;99.90
17639;DHT22;8938;53.546;9.954;2023-01-31T00:33:23;8.10;99.90
17639;DHT22;8938;53.546;9.954;2023-01-31T00:35:49;8.10;99.90
17639;DHT22;8938;53.546;9.954;2023-01-31T00:38:14;8.10;99.90
17639;DHT22;8938;53.546;9.954;2023-01-31T00:40:40;8.20;99.90
17639;DHT22;8938;53.546;9.954;2023-01-31T00:43:06;8.20;99.90
17639;DHT22;8938;53.546;9.954;2023-01-31T00:45:32;8.30;99.90
17639;DHT22;8938;53.546;9.954;2023-01-31T00:47:57;8.30;99.90
17639;DHT22;8938;53.546;9.954;2023-01-31T00:50:23;8.30;99.90
17639;DHT22;8938;53.546;9.954;2023-01-31T00:52:49;8.30;99.90
17639;DHT22;8938;53.546;9.954;2023-01-31T00:55:15;8.30;99.90
17639;DHT22;8938;53.546;9.954;2023-01-31T00:57:41;8.30;99.90
17639;DHT22;8938;53.546;9.954;2023-01-31T01:00:07;8.30;99.90
17639;DHT22;8938;53.546;9.954;2023-01-31T01:04:58;8.20;99.90
17639;DHT22;8938;53.546;9.954;2023-01-31T01:07:24;8.20;99.90
17639;DHT22;8938;53.546;9.954;2023-01-31T01:09:49;8.20;99.90
17639;DHT22;8938;53.546;9.954;2023-01-31T01:14:42;8.00;99.90
17639;DHT22;8938;53.546;9.954;2023-01-31T01:17:08;8.10;99.90
17639;DHT22;8938;53.546;9.954;2023-01-31T01:19:33;8.00;99.90
17639;DHT22;8938;53.546;9.954;2023-01-31T01:21:59;8.00;99.90
17639;DHT22;8938;53.546;9.954;2023-01-31T01:24:25;8.00;99.90
17639;DHT22;8938;53.546;9.954;2023-01-31T01:26:52;8.00;99.90
17639;DHT22;8938;53.546;9.954;2023-01-31T01:29:17;8.00;99.90
17639;DHT22;8938;53.546;9.954;2023-01-31T01:31:43;8.00;99.90
17639;DHT22;8938;53.546;9.954;2023-01-31T01:34:14;8.10;99.90
17639;DHT22;8938;53.546;9.954;2023-01-31T01:36:40;8.10;99.90
17639;DHT22;8938;53.546;9.954;2023-01-31T01:39:07;8.00;99.90
17639;DHT22;8938;53.546;9.954;2023-01-31T01:41:34;8.10;99.90
17639;DHT22;8938;53.546;9.954;2023-01-31T01:44:03;8.10;99.90
17639;DHT22;8938;53.546;9.954;2023-01-31T01:46:40;8.00;99.90
17639;DHT22;8938;53.546;9.954;2023-01-31T01:51:48;8.00;99.90
17639;DHT22;8938;53.546;9.954;2023-01-31T01:54:22;8.20;99.90
17639;DHT22;8938;53.546;9.954;2023-01-31T01:56:52;8.00;99.90
17639;DHT22;8938;53.546;9.954;2023-01-31T01:59:45;8.00;99.90
17639;DHT22;8938;53.546;9.954;2023-01-31T02:02:13;7.90;99.90
17639;DHT22;8938;53.546;9.954;2023-01-31T02:04:39;7.90;99.90
17639;DHT22;8938;53.546;9.954;2023-01-31T02:07:07;8.00;99.90
17639;DHT22;8938;53.546;9.954;2023-01-31T02:09:43;8.00;99.90
17639;DHT22;8938;53.546;9.954;2023-01-31T02:12:11;8.00;99.90
17639;DHT22;8938;53.546;9.954;2023-01-31T02:14:37;8.00;99.90
17639;DHT22;8938;53.546;9.954;2023-01-31T02:17:03;8.00;99.90
17639;DHT22;8938;53.546;9.954;2023-01-31T02:19:37;8.20;99.90
17639;DHT22;8938;53.546;9.954;2023-01-31T02:22:14;8.20;99.90
17639;DHT22;8938;53.546;9.954;2023-01-31T02:28:14;8.30;99.90
17639;DHT22;8938;53.546;9.954;2023-01-31T02:41:33;7.90;99.90
17639;DHT22;8938;53.546;9.954;2023-01-31T02:44:16;7.90;99.90
17639;DHT22;8938;53.546;9.954;2023-01-31T02:50:10;7.80;99.90
17639;DHT22;8938;53.546;9.954;2023-01-31T02:52:50;7.80;99.90
17639;DHT22;8938;53.546;9.954;2023-01-31T02:55:21;8.00;99.90
17639;DHT22;8938;53.546;9.954;2023-01-31T02:58:11;7.90;99.90
17639;DHT22;8938;53.546;9.954;2023-01-31T03:00:40;8.00;99.90
17639;DHT22;8938;53.546;9.954;2023-01-31T03:03:21;8.10;99.90
17639;DHT22;8938;53.546;9.954;2023-01-31T03:08:40;8.10;99.90
17639;DHT22;8938;53.546;9.954;2023-01-31T03:11:07;8.00;99.90
17639;DHT22;8938;53.546;9.954;2023-01-31T03:14:30;8.00;99.90
17639;DHT22;8938;53.546;9.954;2023-01-31T03:17:05;8.00;99.90
17639;DHT22;8938;53.546;9.954;2023-01-31T03:20:19;8.00;99.90
17639;DHT22;8938;53.546;9.954;2023-01-31T03:23:10;7.90;99.90
17639;DHT22;8938;53.546;9.954;2023-01-31T03:25:37;7.90;99.90
17639;DHT22;8938;53.546;9.954;2023-01-31T03:28:07;7.80;99.90
17639;DHT22;8938;53.546;9.954;2023-01-31T03:30:40;7.80;99.90
17639;DHT22;8938;53.546;9.954;2023-01-31T03:33:16;7.90;99.90
17639;DHT22;8938;53.546;9.954;2023-01-31T03:41:45;7.90;99.90
17639;DHT22;8938;53.546;9.954;2023-01-31T03:46:52;7.80;99.90
17639;DHT22;8938;53.546;9.954;2023-01-31T03:49:20;7.80;99.90
17639;DHT22;8938;53.546;9.954;2023-01-31T03:51:51;7.70;99.90
17639;DHT22;8938;53.546;9.954;2023-01-31T03:54:22;7.70;99.90
17639;DHT22;8938;53.546;9.954;2023-01-31T03:57:17;7.70;99.90
17639;DHT22;8938;53.546;9.954;2023-01-31T03:59:43;7.80;99.90
17639;DHT22;8938;53.546;9.954;2023-01-31T04:02:12;7.70;99.90
17639;DHT22;8938;53.546;9.954;2023-01-31T04:04:44;7.70;99.90
17639;DHT22;8938;53.546;9.954;2023-01-31T04:07:11;7.70;99.90
17639;DHT22;8938;53.546;9.954;2023-01-31T04:09:37;7.60;99.90
17639;DHT22;8938;53.546;9.954;2023-01-31T04:12:04;7.60;99.90
17639;DHT22;8938;53.546;9.954;2023-01-31T04:14:30;7.70;99.90
17639;DHT22;8938;53.546;9.954;2023-01-31T04:16:56;7.70;99.90
17639;DHT22;8938;53.546;9.954;2023-01-31T04:19:21;7.70;99.90
17639;DHT22;8938;53.546;9.954;2023-01-31T04:21:47;7.70;99.90
17639;DHT22;8938;53.546;9.954;2023-01-31T04:33:57;7.80;99.90
17639;DHT22;8938;53.546;9.954;2023-01-31T04:36:24;7.90;99.90
17639;DHT22;8938;53.546;9.954;2023-01-31T04:48:34;7.90;99.90
17639;DHT22;8938;53.546;9.954;2023-01-31T04:55:54;7.90;99.90
17639;DHT22;8938;53.546;9.954;2023-01-31T04:58:21;7.90;99.90
17639;DHT22;8938;53.546;9.954;2023-01-31T05:00:47;7.90;99.90
17639;DHT22;8938;53.546;9.954;2023-01-31T05:03:12;7.80;99.90
17639;DHT22;8938;53.546;9.954;2023-01-31T05:05:38;7.80;99.90
17639;DHT22;8938;53.546;9.954;2023-01-31T05:08:04;7.80;99.90
17639;DHT22;8938;53.546;9.954;2023-01-31T05:10:30;7.90;99.90
17639;DHT22;8938;53.546;9.954;2023-01-31T05:17:52;7.80;99.90
17639;DHT22;8938;53.546;9.954;2023-01-31T05:20:18;7.80;99.90
17639;DHT22;8938;53.546;9.954;2023-01-31T05:22:47;7.90;99.90
17639;DHT22;8938;53.546;9.954;2023-01-31T05:25:14;7.90;99.90
17639;DHT22;8938;53.546;9.954;2023-01-31T05:30:06;8.00;99.90
17639;DHT22;8938;53.546;9.954;2023-01-31T05:32:32;7.90;99.90
17639;DHT22;8938;53.546;9.954;2023-01-31T05:37:23;8.00;99.90
17639;DHT22;8938;53.546;9.954;2023-01-31T05:39:49;8.10;99.90
17639;DHT22;8938;53.546;9.954;2023-01-31T05:42:15;8.10;99.90
17639;DHT22;8938;53.546;9.954;2023-01-31T05:44:41;8.10;99.90
17639;DHT22;8938;53.546;9.954;2023-01-31T05:47:07;8.00;99.90
17639;DHT22;8938;53.546;9.954;2023-01-31T05:51:59;7.90;99.90
17639;DHT22;8938;53.546;9.954;2023-01-31T05:54:24;8.00;99.90
17639;DHT22;8938;53.546;9.954;2023-01-31T05:59:16;8.10;99.90
17639;DHT22;8938;53.546;9.954;2023-01-31T06:04:09;8.00;99.90
17639;DHT22;8938;53.546;9.954;2023-01-31T06:18:47;8.30;99.90
17639;DHT22;8938;53.546;9.954;2023-01-31T06:23:40;8.30;99.90
17639;DHT22;8938;53.546;9.954;2023-01-31T06:31:10;8.10;99.90
17639;DHT22;8938;53.546;9.954;2023-01-31T06:33:37;8.00;99.90
17639;DHT22;8938;53.546;9.954;2023-01-31T06:36:03;7.90;99.90
17639;DHT22;8938;53.546;9.954;2023-01-31T06:38:29;8.10;99.90
17639;DHT22;8938;53.546;9.954;2023-01-31T06:40:55;8.20;99.90
17639;DHT22;8938;53.546;9.954;2023-01-31T06:43:21;8.20;99.90
17639;DHT22;8938;53.546;9.954;2023-01-31T06:45:46;8.30;99.90
17639;DHT22;8938;53.546;9.954;2023-01-31T07:00:25;8.30;99.90
17639;DHT22;8938;53.546;9.954;2023-01-31T07:02:51;8.30;99.90
17639;DHT22;8938;53.546;9.954;2023-01-31T07:05:18;8.30;99.90
17639;DHT22;8938;53.546;9.954;2023-01-31T07:07:43;8.30;99.90
17639;DHT22;8938;53.546;9.954;2023-01-31T07:10:10;8.20;99.90
17639;DHT22;8938;53.546;9.954;2023-01-31T07:17:28;8.10;99.90
17639;DHT22;8938;53.546;9.954;2023-01-31T07:19:53;8.10;99.90
17639;DHT22;8938;53.546;9.954;2023-01-31T07:22:19;8.20;99.90
17639;DHT22;8938;53.546;9.954;2023-01-31T07:27:13;8.20;99.90
17639;DHT22;8938;53.546;9.954;2023-01-31T07:29:39;8.20;99.90
17639;DHT22;8938;53.546;9.954;2023-01-31T07:32:05;8.20;99.90
17639;DHT22;8938;53.546;9.954;2023-01-31T07:44:15;8.30;99.90
17639;DHT22;8938;53.546;9.954;2023-01-31T07:46:40;8.40;99.90
17639;DHT22;8938;53.546;9.954;2023-01-31T07:49:09;8.40;99.90
17639;DHT22;8938;53.546;9.954;2023-01-31T07:54:01;8.30;99.90
17639;DHT22;8938;53.546;9.954;2023-01-31T07:58:54;8.30;99.90
17639;DHT22;8938;53.546;9.954;2023-01-31T08:01:21;8.30;99.90
17639;DHT22;8938;53.546;9.954;2023-01-31T08:04:09;8.30;99.90
17639;DHT22;8938;53.546;9.954;2023-01-31T08:06:35;8.40;99.90
17639;DHT22;8938;53.546;9.954;2023-01-31T08:09:01;8.40;99.90
17639;DHT22;8938;53.546;9.954;2023-01-31T08:16:19;8.50;99.90
17639;DHT22;8938;53.546;9.954;2023-01-31T08:18:48;8.50;99.90
17639;DHT22;8938;53.546;9.954;2023-01-31T08:21:15;8.60;99.90
17639;DHT22;8938;53.546;9.954;2023-01-31T08:23:41;8.70;99.90
17639;DHT22;8938;53.546;9.954;2023-01-31T08:26:12;8.70;99.90
17639;DHT22;8938;53.546;9.954;2023-01-31T08:28:39;8.80;99.90
17639;DHT22;8938;53.546;9.954;2023-01-31T08:31:05;8.80;99.90
17639;DHT22;8938;53.546;9.954;2023-01-31T08:33:31;8.90;99.90
17639;DHT22;8938;53.546;9.954;2023-01-31T08:36:06;8.90;99.90
17639;DHT22;8938;53.546;9.954;2023-01-31T08:38:32;8.90;99.90
17639;DHT22;8938;53.546;9.954;2023-01-31T08:40:58;8.90;99.90
17639;DHT22;8938;53.546;9.954;2023-01-31T08:43:23;8.80;99.90
17639;DHT22;8938;53.546;9.954;2023-01-31T08:45:49;8.80;99.90
17639;DHT22;8938;53.546;9.954;2023-01-31T08:48:14;8.80;99.90
17639;DHT22;8938;53.546;9.954;2023-01-31T08:50:41;8.90;99.90
17639;DHT22;8938;53.546;9.954;2023-01-31T08:53:06;9.00;99.90
17639;DHT22;8938;53.546;9.954;2023-01-31T08:55:34;9.00;99.90
17639;DHT22;8938;53.546;9.954;2023-01-31T08:58:00;9.00;99.90
17639;DHT22;8938;53.546;9.954;2023-01-31T09:00:27;8.90;99.90
17639;DHT22;8938;53.546;9.954;2023-01-31T09:02:55;8.90;99.90
17639;DHT22;8938;53.546;9.954;2023-01-31T09:05:25;8.80;99.90
17639;DHT22;8938;53.546;9.954;2023-01-31T09:07:51;8.90;99.90
17639;DHT22;8938;53.546;9.954;2023-01-31T09:10:17;8.80;99.90
17639;DHT22;8938;53.546;9.954;2023-01-31T09:12:43;8.90;99.90
17639;DHT22;8938;53.546;9.954;2023-01-31T09:15:09;8.90;99.90
17639;DHT22;8938;53.546;9.954;2023-01-31T09:17:35;8.90;99.90
17639;DHT22;8938;53.546;9.954;2023-01-31T09:20:01;8.90;99.90
17639;DHT22;8938;53.546;9.954;2023-01-31T09:22:31;8.90;99.90
17639;DHT22;8938;53.546;9.954;2023-01-31T09:24:57;8.80;99.90
17639;DHT22;8938;53.546;9.954;2023-01-31T09:27:23;8.80;99.90
17639;DHT22;8938;53.546;9.954;2023-01-31T09:29:49;8.80;99.90
17639;DHT22;8938;53.546;9.954;2023-01-31T09:32:14;8.80;99.90
17639;DHT22;8938;53.546;9.954;2023-01-31T09:34:40;8.90;99.90
17639;DHT22;8938;53.546;9.954;2023-01-31T09:37:07;8.90;99.90
17639;DHT22;8938;53.546;9.954;2023-01-31T09:39:33;8.80;99.90
17639;DHT22;8938;53.546;9.954;2023-01-31T09:42:25;8.50;99.90
17639;DHT22;8938;53.546;9.954;2023-01-31T09:45:18;8.60;99.90
17639;DHT22;8938;53.546;9.954;2023-01-31T09:47:51;8.60;99.90
17639;DHT22;8938;53.546;9.954;2023-01-31T09:50:21;8.60;99.90
17639;DHT22;8938;53.546;9.954;2023-01-31T09:52:48;8.50;99.90
17639;DHT22;8938;53.546;9.954;2023-01-31T09:55:44;8.50;99.90
17639;DHT22;8938;53.546;9.954;2023-01-31T09:58:29;8.60;99.90
17639;DHT22;8938;53.546;9.954;2023-01-31T10:01:08;8.60;99.90
17639;DHT22;8938;53.546;9.954;2023-01-31T10:06:23;8.50;99.90
17639;DHT22;8938;53.546;9.954;2023-01-31T10:11:49;8.50;99.90
17639;DHT22;8938;53.546;9.954;2023-01-31T10:16:59;8.50;99.90
17639;DHT22;8938;53.546;9.954;2023-01-31T10:19:31;8.60;99.90
17639;DHT22;8938;53.546;9.954;2023-01-31T10:22:06;8.60;99.90
17639;DHT22;8938;53.546;9.954;2023-01-31T10:24:51;9.20;99.90
17639;DHT22;8938;53.546;9.954;2023-01-31T10:27:47;8.60;99.90
17639;DHT22;8938;53.546;9.954;2023-01-31T10:30:47;8.70;99.90
17639;DHT22;8938;53.546;9.954;2023-01-31T10:41:36;8.70;99.90
17639;DHT22;8938;53.546;9.954;2023-01-31T10:44:09;8.70;99.90
17639;DHT22;8938;53.546;9.954;2023-01-31T10:46:37;8.70;99.90
17639;DHT22;8938;53.546;9.954;2023-01-31T10:49:03;8.70;99.90
17639;DHT22;8938;53.546;9.954;2023-01-31T10:54:11;8.80;99.90
17639;DHT22;8938;53.546;9.954;2023-01-31T10:56:42;8.80;99.90
17639;DHT22;8938;53.546;9.954;2023-01-31T10:59:30;8.80;99.90
17639;DHT22;8938;53.546;9.954;2023-01-31T11:01:57;8.70;99.90
17639;DHT22;8938;53.546;9.954;2023-01-31T11:06:51;8.80;99.90
17639;DHT22;8938;53.546;9.954;2023-01-31T11:09:17;8.90;99.90
17639;DHT22;8938;53.546;9.954;2023-01-31T11:11:56;9.00;99.90
17639;DHT22;8938;53.546;9.954;2023-01-31T11:14:22;9.00;99.90
17639;DHT22;8938;53.546;9.954;2023-01-31T11:16:48;9.00;99.90
17639;DHT22;8938;53.546;9.954;2023-01-31T11:21:58;9.00;99.90
17639;DHT22;8938;53.546;9.954;2023-01-31T11:24:27;9.00;99.90
17639;DHT22;8938;53.546;9.954;2023-01-31T11:29:30;9.10;99.90
17639;DHT22;8938;53.546;9.954;2023-01-31T11:31:57;9.00;99.90
17639;DHT22;8938;53.546;9.954;2023-01-31T11:34:28;9.00;99.90
17639;DHT22;8938;53.546;9.954;2023-01-31T11:37:15;9.10;99.90
17639;DHT22;8938;53.546;9.954;2023-01-31T11:42:15;9.00;99.90
17639;DHT22;8938;53.546;9.954;2023-01-31T11:47:19;9.00;99.90
17639;DHT22;8938;53.546;9.954;2023-01-31T11:49:48;9.00;99.90
17639;DHT22;8938;53.546;9.954;2023-01-31T11:52:17;9.00;99.90
17639;DHT22;8938;53.546;9.954;2023-01-31T11:54:51;9.20;99.90
17639;DHT22;8938;53.546;9.954;2023-01-31T11:57:26;9.00;99.90
17639;DHT22;8938;53.546;9.954;2023-01-31T11:59:55;9.00;99.90
17639;DHT22;8938;53.546;9.954;2023-01-31T12:04:58;9.00;99.90
17639;DHT22;8938;53.546;9.954;2023-01-31T12:07:40;9.00;99.90
17639;DHT22;8938;53.546;9.954;2023-01-31T12:13:15;9.10;99.90
17639;DHT22;8938;53.546;9.954;2023-01-31T12:15:47;9.20;99.90
17639;DHT22;8938;53.546;9.954;2023-01-31T12:18:20;9.20;99.90
17639;DHT22;8938;53.546;9.954;2023-01-31T12:20:56;9.20;99.90
17639;DHT22;8938;53.546;9.954;2023-01-31T12:23:49;9.20;99.90
17639;DHT22;8938;53.546;9.954;2023-01-31T12:29:43;9.40;99.90
17639;DHT22;8938;53.546;9.954;2023-01-31T12:32:36;9.30;99.90
17639;DHT22;8938;53.546;9.954;2023-01-31T12:38:15;9.20;99.90
17639;DHT22;8938;53.546;9.954;2023-01-31T12:41:03;9.30;99.90
17639;DHT22;8938;53.546;9.954;2023-01-31T12:43:47;9.40;99.90
17639;DHT22;8938;53.546;9.954;2023-01-31T12:46:34;9.40;99.90
17639;DHT22;8938;53.546;9.954;2023-01-31T12:49:19;9.50;99.90
17639;DHT22;8938;53.546;9.954;2023-01-31T12:54:45;9.50;99.90
17639;DHT22;8938;53.546;9.954;2023-01-31T13:00:39;9.50;99.90
17639;DHT22;8938;53.546;9.954;2023-01-31T13:08:30;9.70;99.90
17639;DHT22;8938;53.546;9.954;2023-01-31T13:10:57;9.70;99.90
17639;DHT22;8938;53.546;9.954;2023-01-31T13:13:34;9.70;99.90
17639;DHT22;8938;53.546;9.954;2023-01-31T13:16:09;9.70;99.90
17639;DHT22;8938;53.546;9.954;2023-01-31T13:18:36;9.80;99.90
17639;DHT22;8938;53.546;9.954;2023-01-31T13:21:07;9.80;99.90
17639;DHT22;8938;53.546;9.954;2023-01-31T13:23:42;9.80;99.90
17639;DHT22;8938;53.546;9.954;2023-01-31T13:28:46;9.80;99.90
17639;DHT22;8938;53.546;9.954;2023-01-31T13:31:20;9.90;99.90
17639;DHT22;8938;53.546;9.954;2023-01-31T13:36:40;10.00;99.90
17639;DHT22;8938;53.546;9.954;2023-01-31T13:44:19;10.10;99.90
17639;DHT22;8938;53.546;9.954;2023-01-31T13:52:00;10.40;99.90
17639;DHT22;8938;53.546;9.954;2023-01-31T13:54:40;10.40;99.90
17639;DHT22;8938;53.546;9.954;2023-01-31T13:57:40;10.40;99.90
17639;DHT22;8938;53.546;9.954;2023-01-31T14:00:28;10.40;99.90
17639;DHT22;8938;53.546;9.954;2023-01-31T14:03:06;10.30;99.90
17639;DHT22;8938;53.546;9.954;2023-01-31T14:10:59;10.20;99.90
17639;DHT22;8938;53.546;9.954;2023-01-31T14:13:39;10.40;99.90
17639;DHT22;8938;53.546;9.954;2023-01-31T14:18:56;10.50;99.90
17639;DHT22;8938;53.546;9.954;2023-01-31T14:23:55;10.60;99.90
17639;DHT22;8938;53.546;9.954;2023-01-31T14:29:06;10.60;99.90
17639;DHT22;8938;53.546;9.954;2023-01-31T14:36:35;10.60;99.90
17639;DHT22;8938;53.546;9.954;2023-01-31T14:42:10;10.60;99.90
17639;DHT22;8938;53.546;9.954;2023-01-31T14:47:40;10.70;99.90
17639;DHT22;8938;53.546;9.954;2023-01-31T14:58:51;10.50;99.90
17639;DHT22;8938;53.546;9.954;2023-01-31T15:01:20;10.50;99.90
17639;DHT22;8938;53.546;9.954;2023-01-31T15:03:56;10.60;99.90
17639;DHT22;8938;53.546;9.954;2023-01-31T15:08:50;10.60;99.90
17639;DHT22;8938;53.546;9.954;2023-01-31T15:11:38;10.60;99.90
17639;DHT22;8938;53.546;9.954;2023-01-31T15:19:50;10.60;99.90
17639;DHT22;8938;53.546;9.954;2023-01-31T15:22:17;10.50;99.90
17639;DHT22;8938;53.546;9.954;2023-01-31T15:24:50;10.40;99.90
17639;DHT22;8938;53.546;9.954;2023-01-31T15:27:26;10.40;99.90
17639;DHT22;8938;53.546;9.954;2023-01-31T15:32:55;10.50;99.90
17639;DHT22;8938;53.546;9.954;2023-01-31T15:35:34;10.40;99.90
17639;DHT22;8938;53.546;9.954;2023-01-31T15:38:18;10.50;99.90
17639;DHT22;8938;53.546;9.954;2023-01-31T15:40:45;10.50;99.90
17639;DHT22;8938;53.546;9.954;2023-01-31T15:43:22;10.50;99.90
17639;DHT22;8938;53.546;9.954;2023-01-31T15:45:48;10.60;99.90
17639;DHT22;8938;53.546;9.954;2023-01-31T15:48:18;10.60;99.90
17639;DHT22;8938;53.546;9.954;2023-01-31T15:51:02;10.60;99.90
17639;DHT22;8938;53.546;9.954;2023-01-31T15:53:28;10.70;99.90
17639;DHT22;8938;53.546;9.954;2023-01-31T15:55:56;10.70;99.90
17639;DHT22;8938;53.546;9.954;2023-01-31T15:58:25;10.70;99.90
17639;DHT22;8938;53.546;9.954;2023-01-31T16:00:56;10.70;99.90
17639;DHT22;8938;53.546;9.954;2023-01-31T16:03:28;10.70;99.90
17639;DHT22;8938;53.546;9.954;2023-01-31T16:05:56;10.70;99.90
17639;DHT22;8938;53.546;9.954;2023-01-31T16:08:32;10.70;99.90
17639;DHT22;8938;53.546;9.954;2023-01-31T16:11:00;10.70;99.90
17639;DHT22;8938;53.546;9.954;2023-01-31T16:13:26;10.70;99.90
17639;DHT22;8938;53.546;9.954;2023-01-31T16:15:52;10.80;99.90
17639;DHT22;8938;53.546;9.954;2023-01-31T16:18:18;10.70;99.90
17639;DHT22;8938;53.546;9.954;2023-01-31T16:20:46;10.60;99.90
17639;DHT22;8938;53.546;9.954;2023-01-31T16:23:29;10.00;99.90
17639;DHT22;8938;53.546;9.954;2023-01-31T16:28:38;9.10;99.90
17639;DHT22;8938;53.546;9.954;2023-01-31T16:31:08;9.00;99.90
17639;DHT22;8938;53.546;9.954;2023-01-31T16:33:34;8.90;99.90
17639;DHT22;8938;53.546;9.954;2023-01-31T16:36:30;8.80;99.90
17639;DHT22;8938;53.546;9.954;2023-01-31T16:39:00;8.80;99.90
17639;DHT22;8938;53.546;9.954;2023-01-31T16:41:41;8.80;99.90
17639;DHT22;8938;53.546;9.954;2023-01-31T16:44:18;8.70;99.90
17639;DHT22;8938;53.546;9.954;2023-01-31T16:46:45;8.70;99.90
17639;DHT22;8938;53.546;9.954;2023-01-31T16:49:20;8.60;99.90
17639;DHT22;8938;53.546;9.954;2023-01-31T16:51:46;8.70;99.90
17639;DHT22;8938;53.546;9.954;2023-01-31T16:54:17;8.70;99.90
17639;DHT22;8938;53.546;9.954;2023-01-31T16:57:03;8.70;99.90
17639;DHT22;8938;53.546;9.954;2023-01-31T17:04:40;8.90;99.90
17639;DHT22;8938;53.546;9.954;2023-01-31T17:07:14;9.00;99.90
17639;DHT22;8938;53.546;9.954;2023-01-31T17:09:40;9.00;99.90
17639;DHT22;8938;53.546;9.954;2023-01-31T17:12:20;9.10;99.90
17639;DHT22;8938;53.546;9.954;2023-01-31T17:14:46;9.10;99.90
17639;DHT22;8938;53.546;9.954;2023-01-31T17:17:12;9.30;99.90
17639;DHT22;8938;53.546;9.954;2023-01-31T17:19:38;9.30;99.90
17639;DHT22;8938;53.546;9.954;2023-01-31T17:22:03;9.30;99.90
17639;DHT22;8938;53.546;9.954;2023-01-31T17:24:30;9.40;99.90
17639;DHT22;8938;53.546;9.954;2023-01-31T17:26:56;9.40;99.90
17639;DHT22;8938;53.546;9.954;2023-01-31T17:29:22;9.50;99.90
17639;DHT22;8938;53.546;9.954;2023-01-31T17:31:50;9.50;99.90
17639;DHT22;8938;53.546;9.954;2023-01-31T17:34:16;9.50;99.90
17639;DHT22;8938;53.546;9.954;2023-01-31T17:36:43;9.50;99.90
17639;DHT22;8938;53.546;9.954;2023-01-31T17:39:08;9.60;99.90
17639;DHT22;8938;53.546;9.954;2023-01-31T17:41:34;9.60;99.90
17639;DHT22;8938;53.546;9.954;2023-01-31T17:44:01;9.50;99.90
17639;DHT22;8938;53.546;9.954;2023-01-31T17:46:27;9.40;99.90
17639;DHT22;8938;53.546;9.954;2023-01-31T17:48:55;9.50;99.90
17639;DHT22;8938;53.546;9.954;2023-01-31T17:51:21;9.50;99.90
17639;DHT22;8938;53.546;9.954;2023-01-31T17:53:46;9.50;99.90
17639;DHT22;8938;53.546;9.954;2023-01-31T17:56:12;9.50;99.90
17639;DHT22;8938;53.546;9.954;2023-01-31T17:58:37;9.60;99.90
17639;DHT22;8938;53.546;9.954;2023-01-31T18:01:07;9.60;99.90
17639;DHT22;8938;53.546;9.954;2023-01-31T18:03:33;9.60;99.90
17639;DHT22;8938;53.546;9.954;2023-01-31T18:06:06;9.60;99.90
17639;DHT22;8938;53.546;9.954;2023-01-31T18:08:32;9.50;99.90
17639;DHT22;8938;53.546;9.954;2023-01-31T18:11:13;9.50;99.90
17639;DHT22;8938;53.546;9.954;2023-01-31T18:13:40;9.50;99.90
17639;DHT22;8938;53.546;9.954;2023-01-31T18:16:14;9.50;99.90
17639;DHT22;8938;53.546;9.954;2023-01-31T18:18:40;9.50;99.90
17639;DHT22;8938;53.546;9.954;2023-01-31T18:21:10;9.50;99.90
17639;DHT22;8938;53.546;9.954;2023-01-31T18:23:36;9.50;99.90
17639;DHT22;8938;53.546;9.954;2023-01-31T18:26:06;9.50;99.90
17639;DHT22;8938;53.546;9.954;2023-01-31T18:28:33;9.50;99.90
17639;DHT22;8938;53.546;9.954;2023-01-31T18:31:05;9.50;99.90
17639;DHT22;8938;53.546;9.954;2023-01-31T18:33:38;9.50;99.90
17639;DHT22;8938;53.546;9.954;2023-01-31T18:36:04;9.60;99.90
17639;DHT22;8938;53.546;9.954;2023-01-31T18:38:30;9.50;99.90
17639;DHT22;8938;53.546;9.954;2023-01-31T18:40:56;9.50;99.90
17639;DHT22;8938;53.546;9.954;2023-01-31T18:43:22;9.50;99.90
17639;DHT22;8938;53.546;9.954;2023-01-31T18:45:50;9.50;99.90
17639;DHT22;8938;53.546;9.954;2023-01-31T18:48:16;9.50;99.90
17639;DHT22;8938;53.546;9.954;2023-01-31T18:50:41;9.50;99.90
17639;DHT22;8938;53.546;9.954;2023-01-31T18:53:07;9.50;99.90
17639;DHT22;8938;53.546;9.954;2023-01-31T18:55:32;9.50;99.90
17639;DHT22;8938;53.546;9.954;2023-01-31T18:57:58;9.60;99.90
17639;DHT22;8938;53.546;9.954;2023-01-31T19:00:23;9.70;99.90
17639;DHT22;8938;53.546;9.954;2023-01-31T19:02:50;9.70;99.90
17639;DHT22;8938;53.546;9.954;2023-01-31T19:05:16;9.70;99.90
17639;DHT22;8938;53.546;9.954;2023-01-31T19:07:42;9.60;99.90
17639;DHT22;8938;53.546;9.954;2023-01-31T19:10:08;9.50;99.90
17639;DHT22;8938;53.546;9.954;2023-01-31T19:12:34;9.50;99.90
17639;DHT22;8938;53.546;9.954;2023-01-31T19:15:07;9.40;99.90
17639;DHT22;8938;53.546;9.954;2023-01-31T19:17:33;9.30;99.90
17639;DHT22;8938;53.546;9.954;2023-01-31T19:19:58;9.30;99.90
17639;DHT22;8938;53.546;9.954;2023-01-31T19:22:25;9.30;99.90
17639;DHT22;8938;53.546;9.954;2023-01-31T19:24:53;9.20;99.90
17639;DHT22;8938;53.546;9.954;2023-01-31T19:27:19;9.30;99.90
17639;DHT22;8938;53.546;9.954;2023-01-31T19:29:44;9.30;99.90
17639;DHT22;8938;53.546;9.954;2023-01-31T19:32:10;9.20;99.90
17639;DHT22;8938;53.546;9.954;2023-01-31T19:34:36;9.20;99.90
17639;DHT22;8938;53.546;9.954;2023-01-31T19:37:01;9.20;99.90
17639;DHT22;8938;53.546;9.954;2023-01-31T19:39:27;9.20;99.90
17639;DHT22;8938;53.546;9.954;2023-01-31T19:41:53;9.20;99.90
17639;DHT22;8938;53.546;9.954;2023-01-31T19:44:18;9.10;99.90
17639;DHT22;8938;53.546;9.954;2023-01-31T19:46:45;9.30;99.90
17639;DHT22;8938;53.546;9.954;2023-01-31T19:49:13;9.30;99.90
17639;DHT22;8938;53.546;9.954;2023-01-31T19:51:39;9.40;99.90
17639;DHT22;8938;53.546;9.954;2023-01-31T19:54:06;9.20;99.90
17639;DHT22;8938;53.546;9.954;2023-01-31T19:56:32;9.30;99.90
17639;DHT22;8938;53.546;9.954;2023-01-31T19:58:58;9.30;99.90
17639;DHT22;8938;53.546;9.954;2023-01-31T20:01:24;9.30;99.90
17639;DHT22;8938;53.546;9.954;2023-01-31T20:03:49;9.20;99.90
17639;DHT22;8938;53.546;9.954;2023-01-31T20:06:17;9.30;99.90
17639;DHT22;8938;53.546;9.954;2023-01-31T20:08:48;9.30;99.90
17639;DHT22;8938;53.546;9.954;2023-01-31T20:11:14;9.30;99.90
17639;DHT22;8938;53.546;9.954;2023-01-31T20:13:41;9.30;99.90
17639;DHT22;8938;53.546;9.954;2023-01-31T20:16:08;9.30;99.90
17639;DHT22;8938;53.546;9.954;2023-01-31T20:18:36;9.30;99.90
17639;DHT22;8938;53.546;9.954;2023-01-31T20:21:03;9.40;99.90
17639;DHT22;8938;53.546;9.954;2023-01-31T20:23:29;9.30;99.90
17639;DHT22;8938;53.546;9.954;2023-01-31T20:25:55;9.40;99.90
17639;DHT22;8938;53.546;9.954;2023-01-31T20:28:21;9.30;99.90
17639;DHT22;8938;53.546;9.954;2023-01-31T20:30:48;9.30;99.90
17639;DHT22;8938;53.546;9.954;2023-01-31T20:33:15;9.40;99.90
17639;DHT22;8938;53.546;9.954;2023-01-31T20:35:41;9.40;99.90
17639;DHT22;8938;53.546;9.954;2023-01-31T20:38:08;9.40;99.90
17639;DHT22;8938;53.546;9.954;2023-01-31T20:40:34;9.40;99.90